PWSweather.com
Personal Weather Stations
Station Observations
KNVELKO7
Elko, NV 89801

Elko, NV 89801

Lat: 40.963233, Lon: -115.592836

Elevation: 5230

Station Type: WS-2812

Latest ConditionsUpdated 7:51:40 PM PST Sunday, Feb 19, 2017
Currently Today's Max Today's Min Today's Average
Temperature 37.4°F3.0°C 53.6°F12.0°C 33.1°F0.6°C 41.9°F5.5°C
Dew Point 23.9°F-4.5°C 38.1°F3.4°C 23.9°F-4.5°C 31.5°F-0.3°C
Winds 4.9 mph NE7.9 kmh NE 25.0 mph SW40.2 kmh SW - 8.1 mph 13.0 kmh
Wind Gusts 6.0 mph9.7 kmh 28.6 mph46.0 kmh - -
Humidity 58% 89% 37% 69%
Pressure 29.86 in1011.2 mb 29.86 in1011.2 mb 29.65 in1004.1 mb -
Precipitation - 0.01 in0.3 mm - -
Hour Temp Dew Point Humidity Winds Wind Gusts Pressure Precip Precip Rate Daily Precip Total
07:51 PM 37.4°F3.0°C 23.9°F-4.5°C 58% 4.9 mph NE7.9 kmh NE 6.0 mph9.7 kmh 29.86 in1011.2 mb 0.00 in0.0 mm 0.00 in0.0 mm 0.01 in0.3 mm
07:46 PM 37.8°F3.2°C 24.3°F-4.3°C 58% 3.1 mph NNE5.0 kmh NNE 3.1 mph5.0 kmh 29.86 in1011.2 mb 0.00 in0.0 mm 0.00 in0.0 mm 0.01 in0.3 mm
07:41 PM 38.0°F3.3°C 24.5°F-4.2°C 58% Calm Calm -- 29.86 in1011.2 mb 0.00 in0.0 mm 0.00 in0.0 mm 0.01 in0.3 mm
07:36 PM 38.0°F3.3°C 24.5°F-4.2°C 58% Calm Calm -- 29.86 in1011.2 mb 0.00 in0.0 mm 0.00 in0.0 mm 0.01 in0.3 mm
07:31 PM 38.3°F3.5°C 24.4°F-4.2°C 57% Calm Calm -- 29.86 in1011.2 mb 0.00 in0.0 mm 0.00 in0.0 mm 0.01 in0.3 mm
07:26 PM 38.7°F3.7°C 24.2°F-4.3°C 56% Calm Calm -- 29.86 in1011.2 mb 0.00 in0.0 mm 0.00 in0.0 mm 0.01 in0.3 mm
07:22 PM 39.1°F3.9°C 24.6°F-4.1°C 56% Calm Calm -- 29.86 in1011.2 mb 0.00 in0.0 mm 0.00 in0.0 mm 0.01 in0.3 mm
07:17 PM 39.2°F4.0°C 24.8°F-4.0°C 56% Calm Calm -- 29.85 in1010.8 mb 0.00 in0.0 mm 0.00 in0.0 mm 0.01 in0.3 mm
07:12 PM 39.4°F4.1°C 24.5°F-4.2°C 55% Calm Calm -- 29.85 in1010.8 mb 0.00 in0.0 mm 0.00 in0.0 mm 0.01 in0.3 mm
07:07 PM 39.8°F4.3°C 24.9°F-3.9°C 55% Calm Calm -- 29.85 in1010.8 mb 0.00 in0.0 mm 0.00 in0.0 mm 0.01 in0.3 mm
07:02 PM 40.0°F4.4°C 24.6°F-4.1°C 54% Calm Calm -- 29.85 in1010.8 mb 0.00 in0.0 mm 0.00 in0.0 mm 0.01 in0.3 mm
06:56 PM 40.3°F4.6°C 24.8°F-4.0°C 54% Calm Calm -- 29.85 in1010.8 mb 0.00 in0.0 mm 0.00 in0.0 mm 0.01 in0.3 mm
06:51 PM 40.5°F4.7°C 25.0°F-3.9°C 54% Calm Calm -- 29.85 in1010.8 mb 0.00 in0.0 mm 0.00 in0.0 mm 0.01 in0.3 mm
06:46 PM 40.7°F4.8°C 24.8°F-4.0°C 53% Calm Calm -- 29.85 in1010.8 mb 0.00 in0.0 mm 0.00 in0.0 mm 0.01 in0.3 mm
06:41 PM 41.0°F5.0°C 24.7°F-4.1°C 52% Calm Calm -- 29.85 in1010.8 mb 0.00 in0.0 mm 0.00 in0.0 mm 0.01 in0.3 mm
06:36 PM 41.4°F5.2°C 25.0°F-3.9°C 52% Calm Calm -- 29.85 in1010.8 mb 0.00 in0.0 mm 0.00 in0.0 mm 0.01 in0.3 mm
06:31 PM 41.9°F5.5°C 25.1°F-3.8°C 51% Calm Calm -- 29.85 in1010.8 mb 0.00 in0.0 mm 0.00 in0.0 mm 0.01 in0.3 mm
06:26 PM 42.3°F5.7°C 25.0°F-3.9°C 50% Calm Calm -- 29.84 in1010.5 mb 0.00 in0.0 mm 0.00 in0.0 mm 0.01 in0.3 mm
06:21 PM 42.8°F6.0°C 25.6°F-3.6°C 50% Calm Calm -- 29.84 in1010.5 mb 0.00 in0.0 mm 0.00 in0.0 mm 0.01 in0.3 mm
06:16 PM 43.0°F6.1°C 25.8°F-3.4°C 50% Calm Calm -- 29.84 in1010.5 mb 0.00 in0.0 mm 0.00 in0.0 mm 0.01 in0.3 mm
06:11 PM 43.6°F6.4°C 26.2°F-3.2°C 50% Calm Calm 1.8 mph2.9 kmh 29.84 in1010.5 mb 0.00 in0.0 mm 0.00 in0.0 mm 0.01 in0.3 mm
06:06 PM 44.1°F6.7°C 26.2°F-3.2°C 49% Calm Calm 2.5 mph4.0 kmh 29.84 in1010.5 mb 0.00 in0.0 mm 0.00 in0.0 mm 0.01 in0.3 mm
06:01 PM 44.5°F6.9°C 26.5°F-3.1°C 49% 1.7 mph NNW2.7 kmh NNW 2.5 mph4.0 kmh 29.84 in1010.5 mb 0.00 in0.0 mm 0.00 in0.0 mm 0.01 in0.3 mm
05:56 PM 45.0°F7.2°C 26.5°F-3.1°C 48% 0.7 mph NNW1.1 kmh NNW 0.7 mph1.1 kmh 29.84 in1010.5 mb 0.00 in0.0 mm 0.00 in0.0 mm 0.01 in0.3 mm
05:51 PM 45.2°F7.3°C 26.6°F-3.0°C 48% Calm Calm 1.3 mph2.1 kmh 29.84 in1010.5 mb 0.00 in0.0 mm 0.00 in0.0 mm 0.01 in0.3 mm
05:46 PM 45.4°F7.4°C 26.7°F-2.9°C 48% Calm Calm 2.5 mph4.0 kmh 29.84 in1010.5 mb 0.00 in0.0 mm 0.00 in0.0 mm 0.01 in0.3 mm
05:41 PM 45.7°F7.6°C 27.1°F-2.7°C 48% 2.0 mph SW3.2 kmh SW 3.6 mph5.8 kmh 29.84 in1010.5 mb 0.00 in0.0 mm 0.00 in0.0 mm 0.01 in0.3 mm
05:36 PM 46.1°F7.8°C 26.8°F-2.9°C 47% 2.5 mph SSW4.0 kmh SSW 3.8 mph6.1 kmh 29.84 in1010.5 mb 0.00 in0.0 mm 0.00 in0.0 mm 0.01 in0.3 mm
05:31 PM 46.4°F8.0°C 27.2°F-2.7°C 47% 2.7 mph SSW4.3 kmh SSW 4.3 mph6.9 kmh 29.83 in1010.2 mb 0.00 in0.0 mm 0.00 in0.0 mm 0.01 in0.3 mm
05:26 PM 46.8°F8.2°C 27.0°F-2.8°C 46% 3.2 mph SW5.1 kmh SW 7.6 mph12.2 kmh 29.83 in1010.2 mb 0.00 in0.0 mm 0.00 in0.0 mm 0.01 in0.3 mm
05:21 PM 47.2°F8.4°C 26.7°F-2.9°C 45% 5.2 mph SW8.4 kmh SW 9.6 mph15.4 kmh 29.83 in1010.2 mb 0.00 in0.0 mm 0.00 in0.0 mm 0.01 in0.3 mm
05:16 PM 47.5°F8.6°C 27.1°F-2.7°C 45% 7.5 mph WSW12.1 kmh WSW 9.6 mph15.4 kmh 29.83 in1010.2 mb 0.00 in0.0 mm 0.00 in0.0 mm 0.01 in0.3 mm
05:11 PM 48.1°F8.9°C 27.5°F-2.5°C 45% 7.6 mph WSW12.2 kmh WSW 7.8 mph12.6 kmh 29.83 in1010.2 mb 0.00 in0.0 mm 0.00 in0.0 mm 0.01 in0.3 mm
05:06 PM 48.4°F9.1°C 27.9°F-2.3°C 45% 5.9 mph SW9.5 kmh SW 9.6 mph15.4 kmh 29.83 in1010.2 mb 0.00 in0.0 mm 0.00 in0.0 mm 0.01 in0.3 mm
05:01 PM 48.6°F9.2°C 28.1°F-2.2°C 45% 6.0 mph WSW9.7 kmh WSW 9.6 mph15.4 kmh 29.82 in1009.8 mb 0.00 in0.0 mm 0.00 in0.0 mm 0.01 in0.3 mm
04:56 PM 48.8°F9.3°C 27.7°F-2.4°C 44% 6.4 mph SW10.3 kmh SW 11.4 mph18.3 kmh 29.82 in1009.8 mb 0.00 in0.0 mm 0.00 in0.0 mm 0.01 in0.3 mm
04:51 PM 49.0°F9.4°C 27.9°F-2.3°C 44% 6.6 mph S10.6 kmh S 12.1 mph19.5 kmh 29.82 in1009.8 mb 0.00 in0.0 mm 0.00 in0.0 mm 0.01 in0.3 mm
04:46 PM 49.0°F9.4°C 27.3°F-2.6°C 43% 8.7 mph SW14.0 kmh SW 14.5 mph23.3 kmh 29.82 in1009.8 mb 0.00 in0.0 mm 0.00 in0.0 mm 0.01 in0.3 mm
04:41 PM 49.1°F9.5°C 26.9°F-2.8°C 42% 11.2 mph SW18.0 kmh SW 14.5 mph23.3 kmh 29.81 in1009.5 mb 0.00 in0.0 mm 0.00 in0.0 mm 0.01 in0.3 mm
04:36 PM 49.3°F9.6°C 27.1°F-2.7°C 42% 11.9 mph SW19.2 kmh SW 17.0 mph27.4 kmh 29.81 in1009.5 mb 0.00 in0.0 mm 0.00 in0.0 mm 0.01 in0.3 mm
04:31 PM 49.7°F9.8°C 26.9°F-2.8°C 41% 12.7 mph WSW20.4 kmh WSW 17.0 mph27.4 kmh 29.81 in1009.5 mb 0.00 in0.0 mm 0.00 in0.0 mm 0.01 in0.3 mm
04:26 PM 50.0°F10.0°C 28.4°F-2.0°C 43% 13.6 mph SW21.9 kmh SW 16.6 mph26.7 kmh 29.81 in1009.5 mb 0.00 in0.0 mm 0.00 in0.0 mm 0.01 in0.3 mm
04:21 PM 50.4°F10.2°C 28.6°F-1.9°C 43% 11.3 mph SW18.2 kmh SW 13.9 mph22.4 kmh 29.81 in1009.5 mb 0.00 in0.0 mm 0.00 in0.0 mm 0.01 in0.3 mm
04:16 PM 50.4°F10.2°C 28.6°F-1.9°C 43% 9.5 mph SW15.3 kmh SW 15.4 mph24.8 kmh 29.81 in1009.5 mb 0.00 in0.0 mm 0.00 in0.0 mm 0.01 in0.3 mm
04:11 PM 50.4°F10.2°C 28.1°F-2.2°C 42% 9.9 mph SW15.9 kmh SW 15.4 mph24.8 kmh 29.80 in1009.1 mb 0.00 in0.0 mm 0.00 in0.0 mm 0.01 in0.3 mm
04:06 PM 50.6°F10.3°C 28.8°F-1.8°C 43% 8.5 mph WSW13.7 kmh WSW 12.8 mph20.6 kmh 29.80 in1009.1 mb 0.00 in0.0 mm 0.00 in0.0 mm 0.01 in0.3 mm
04:01 PM 50.6°F10.3°C 28.3°F-2.1°C 42% 11.5 mph SW18.5 kmh SW 17.2 mph27.7 kmh 29.80 in1009.1 mb 0.00 in0.0 mm 0.00 in0.0 mm 0.01 in0.3 mm
03:55 PM 50.6°F10.3°C 28.8°F-1.8°C 43% 11.6 mph S18.7 kmh S 17.2 mph27.7 kmh 29.80 in1009.1 mb 0.00 in0.0 mm 0.00 in0.0 mm 0.01 in0.3 mm
03:50 PM 50.8°F10.4°C 28.5°F-1.9°C 42% 15.6 mph SW25.1 kmh SW 17.7 mph28.5 kmh 29.80 in1009.1 mb 0.00 in0.0 mm 0.00 in0.0 mm 0.01 in0.3 mm
03:45 PM 50.8°F10.4°C 28.5°F-1.9°C 42% 16.7 mph WSW26.9 kmh WSW 18.3 mph29.5 kmh 29.80 in1009.1 mb 0.00 in0.0 mm 0.00 in0.0 mm 0.01 in0.3 mm
03:40 PM 50.9°F10.5°C 28.0°F-2.2°C 41% 12.8 mph WSW20.6 kmh WSW 18.3 mph29.5 kmh 29.79 in1008.8 mb 0.00 in0.0 mm 0.00 in0.0 mm 0.01 in0.3 mm
03:35 PM 50.9°F10.5°C 28.0°F-2.2°C 41% 14.5 mph SW23.3 kmh SW 23.5 mph37.8 kmh 29.79 in1008.8 mb 0.00 in0.0 mm 0.00 in0.0 mm 0.01 in0.3 mm
03:30 PM 50.9°F10.5°C 26.7°F-2.9°C 39% 20.7 mph SW33.3 kmh SW 23.5 mph37.8 kmh 29.79 in1008.8 mb 0.00 in0.0 mm 0.00 in0.0 mm 0.01 in0.3 mm
03:25 PM 51.1°F10.6°C 26.3°F-3.2°C 38% 19.3 mph WSW31.1 kmh WSW 26.2 mph42.2 kmh 29.79 in1008.8 mb 0.00 in0.0 mm 0.00 in0.0 mm 0.01 in0.3 mm
03:20 PM 51.5°F10.8°C 26.6°F-3.0°C 38% 25.0 mph SW40.2 kmh SW 26.2 mph42.2 kmh 29.79 in1008.8 mb 0.00 in0.0 mm 0.00 in0.0 mm 0.01 in0.3 mm
03:16 PM 51.5°F10.8°C 25.9°F-3.4°C 37% 19.8 mph SW31.9 kmh SW 28.6 mph46.0 kmh 29.79 in1008.8 mb 0.00 in0.0 mm 0.00 in0.0 mm 0.01 in0.3 mm
03:11 PM 51.8°F11.0°C 26.9°F-2.8°C 38% 20.1 mph SW32.3 kmh SW 28.6 mph46.0 kmh 29.79 in1008.8 mb 0.00 in0.0 mm 0.00 in0.0 mm 0.01 in0.3 mm
03:06 PM 52.2°F11.2°C 29.2°F-1.6°C 41% 14.4 mph SSW23.2 kmh SSW 22.6 mph36.4 kmh 29.79 in1008.8 mb 0.00 in0.0 mm 0.00 in0.0 mm 0.01 in0.3 mm
03:01 PM 52.2°F11.2°C 28.6°F-1.9°C 40% 18.6 mph SW29.9 kmh SW 22.6 mph36.4 kmh 29.78 in1008.5 mb 0.00 in0.0 mm 0.00 in0.0 mm 0.01 in0.3 mm
02:55 PM 52.4°F11.3°C 31.0°F-0.6°C 44% 18.6 mph W29.9 kmh W 21.9 mph35.2 kmh 29.78 in1008.5 mb 0.00 in0.0 mm 0.00 in0.0 mm 0.01 in0.3 mm
02:50 PM 52.6°F11.4°C 32.2°F0.1°C 46% 14.3 mph WSW23.0 kmh WSW 21.9 mph35.2 kmh 29.78 in1008.5 mb 0.00 in0.0 mm 0.00 in0.0 mm 0.01 in0.3 mm
02:45 PM 52.4°F11.3°C 32.1°F0.1°C 46% 15.3 mph SW24.6 kmh SW 19.2 mph30.9 kmh 29.77 in1008.1 mb 0.00 in0.0 mm 0.00 in0.0 mm 0.01 in0.3 mm
02:40 PM 52.2°F11.2°C 31.4°F-0.3°C 45% 12.4 mph SW20.0 kmh SW 23.7 mph38.1 kmh 29.77 in1008.1 mb 0.00 in0.0 mm 0.00 in0.0 mm 0.01 in0.3 mm
02:35 PM 52.6°F11.4°C 31.7°F-0.2°C 45% 15.7 mph SW25.3 kmh SW 23.7 mph38.1 kmh 29.77 in1008.1 mb 0.00 in0.0 mm 0.00 in0.0 mm 0.01 in0.3 mm
02:30 PM 53.1°F11.7°C 32.2°F0.1°C 45% 20.3 mph S32.7 kmh S 21.0 mph33.8 kmh 29.76 in1007.8 mb 0.00 in0.0 mm 0.00 in0.0 mm 0.01 in0.3 mm
02:25 PM 53.5°F11.9°C 33.0°F0.6°C 46% 14.6 mph SW23.5 kmh SW 17.9 mph28.8 kmh 29.77 in1008.1 mb 0.00 in0.0 mm 0.00 in0.0 mm 0.01 in0.3 mm
02:20 PM 53.3°F11.8°C 33.5°F0.8°C 47% 15.1 mph SW24.3 kmh SW 17.7 mph28.5 kmh 29.76 in1007.8 mb 0.00 in0.0 mm 0.00 in0.0 mm 0.01 in0.3 mm
02:15 PM 52.9°F11.6°C 34.3°F1.3°C 49% 15.0 mph SW24.1 kmh SW 17.2 mph27.7 kmh 29.76 in1007.8 mb 0.00 in0.0 mm 0.00 in0.0 mm 0.01 in0.3 mm
02:10 PM 52.7°F11.5°C 32.9°F0.5°C 47% 14.2 mph S22.9 kmh S 17.2 mph27.7 kmh 29.76 in1007.8 mb 0.00 in0.0 mm 0.00 in0.0 mm 0.01 in0.3 mm
02:05 PM 53.6°F12.0°C 34.4°F1.3°C 48% 15.5 mph SW24.9 kmh SW 18.8 mph30.3 kmh 29.77 in1008.1 mb 0.00 in0.0 mm 0.00 in0.0 mm 0.01 in0.3 mm
02:00 PM 53.6°F12.0°C 34.9°F1.6°C 49% 14.5 mph SSW23.3 kmh SSW 18.8 mph30.3 kmh 29.77 in1008.1 mb 0.01 in0.3 mm 0.00 in0.0 mm 0.01 in0.3 mm
01:55 PM 53.3°F11.8°C 34.6°F1.4°C 49% 14.3 mph SW23.0 kmh SW 17.2 mph27.7 kmh 29.77 in1008.1 mb 0.01 in0.3 mm 0.00 in0.0 mm 0.01 in0.3 mm
01:50 PM 52.9°F11.6°C 34.3°F1.3°C 49% 16.2 mph SSW26.1 kmh SSW 17.2 mph27.7 kmh 29.77 in1008.1 mb 0.01 in0.3 mm 0.00 in0.0 mm 0.01 in0.3 mm
01:45 PM 52.4°F11.3°C 34.7°F1.5°C 51% 12.7 mph SW20.4 kmh SW 17.2 mph27.7 kmh 29.77 in1008.1 mb 0.01 in0.3 mm 0.00 in0.0 mm 0.01 in0.3 mm
01:40 PM 52.2°F11.2°C 34.2°F1.2°C 50% 15.3 mph SW24.6 kmh SW 20.1 mph32.3 kmh 29.77 in1008.1 mb 0.01 in0.3 mm 0.00 in0.0 mm 0.01 in0.3 mm
01:35 PM 52.0°F11.1°C 34.0°F1.1°C 50% 17.0 mph SW27.4 kmh SW 20.1 mph32.3 kmh 29.76 in1007.8 mb 0.01 in0.3 mm 0.00 in0.0 mm 0.01 in0.3 mm
01:30 PM 52.0°F11.1°C 35.4°F1.9°C 53% 11.6 mph SSW18.7 kmh SSW 16.8 mph27.0 kmh 29.76 in1007.8 mb 0.01 in0.3 mm 0.00 in0.0 mm 0.01 in0.3 mm
01:25 PM 51.7°F10.9°C 34.6°F1.4°C 52% 14.6 mph SW23.5 kmh SW 16.8 mph27.0 kmh 29.76 in1007.8 mb 0.01 in0.3 mm 0.00 in0.0 mm 0.01 in0.3 mm
01:20 PM 51.3°F10.7°C 34.3°F1.3°C 52% 14.3 mph S23.0 kmh S 17.2 mph27.7 kmh 29.77 in1008.1 mb 0.01 in0.3 mm 0.00 in0.0 mm 0.01 in0.3 mm
01:15 PM 50.8°F10.4°C 33.3°F0.7°C 51% 15.7 mph SSW25.3 kmh SSW 17.9 mph28.8 kmh 29.76 in1007.8 mb 0.01 in0.3 mm 0.00 in0.0 mm 0.01 in0.3 mm
01:10 PM 51.1°F10.6°C 33.2°F0.7°C 50% 16.8 mph SSW27.0 kmh SSW 17.9 mph28.8 kmh 29.77 in1008.1 mb 0.01 in0.3 mm 0.00 in0.0 mm 0.01 in0.3 mm
01:05 PM 50.9°F10.5°C 33.9°F1.1°C 52% 13.2 mph SSW21.2 kmh SSW 17.9 mph28.8 kmh 29.76 in1007.8 mb 0.01 in0.3 mm 0.12 in3.0 mm 0.01 in0.3 mm
01:00 PM 50.9°F10.5°C 33.5°F0.8°C 51% 13.2 mph SSW21.2 kmh SSW 20.1 mph32.3 kmh 29.76 in1007.8 mb 0.00 in0.0 mm 0.00 in0.0 mm 0.00 in0.0 mm
12:54 PM 51.8°F11.0°C 33.8°F1.0°C 50% 16.5 mph SSW26.6 kmh SSW 20.1 mph32.3 kmh 29.76 in1007.8 mb 0.00 in0.0 mm 0.00 in0.0 mm 0.00 in0.0 mm
12:49 PM 52.6°F11.4°C 34.5°F1.4°C 50% 15.7 mph SW25.3 kmh SW 20.1 mph32.3 kmh 29.76 in1007.8 mb 0.00 in0.0 mm 0.00 in0.0 mm 0.00 in0.0 mm
12:44 PM 52.6°F11.4°C 35.4°F1.9°C 52% 16.9 mph SW27.2 kmh SW 20.1 mph32.3 kmh 29.76 in1007.8 mb 0.00 in0.0 mm 0.00 in0.0 mm 0.00 in0.0 mm
12:39 PM 51.7°F10.9°C 35.0°F1.7°C 53% 15.4 mph SW24.8 kmh SW 19.7 mph31.7 kmh 29.76 in1007.8 mb 0.00 in0.0 mm 0.00 in0.0 mm 0.00 in0.0 mm
12:35 PM 51.5°F10.8°C 34.8°F1.6°C 53% 16.5 mph SW26.6 kmh SW 17.2 mph27.7 kmh 29.76 in1007.8 mb 0.00 in0.0 mm 0.00 in0.0 mm 0.00 in0.0 mm
12:30 PM 51.3°F10.7°C 36.1°F2.3°C 56% 13.9 mph SW22.4 kmh SW 22.4 mph36.0 kmh 29.76 in1007.8 mb 0.00 in0.0 mm 0.00 in0.0 mm 0.00 in0.0 mm
12:25 PM 51.1°F10.6°C 34.6°F1.4°C 53% 15.3 mph SSW24.6 kmh SSW 22.4 mph36.0 kmh 29.76 in1007.8 mb 0.00 in0.0 mm 0.00 in0.0 mm 0.00 in0.0 mm
12:20 PM 51.1°F10.6°C 35.0°F1.7°C 54% 16.5 mph SW26.6 kmh SW 20.4 mph32.8 kmh 29.76 in1007.8 mb 0.00 in0.0 mm 0.00 in0.0 mm 0.00 in0.0 mm
12:15 PM 50.9°F10.5°C 35.3°F1.8°C 55% 19.5 mph SW31.4 kmh SW 20.4 mph32.8 kmh 29.76 in1007.8 mb 0.00 in0.0 mm 0.00 in0.0 mm 0.00 in0.0 mm
12:10 PM 50.8°F10.4°C 35.6°F2.0°C 56% 17.5 mph SW28.2 kmh SW 19.5 mph31.4 kmh 29.76 in1007.8 mb 0.00 in0.0 mm 0.00 in0.0 mm 0.00 in0.0 mm
12:05 PM 50.6°F10.3°C 36.7°F2.6°C 59% 19.4 mph SW31.2 kmh SW 19.5 mph31.4 kmh 29.76 in1007.8 mb 0.00 in0.0 mm 0.00 in0.0 mm 0.00 in0.0 mm
12:00 PM 51.1°F10.6°C 37.3°F2.9°C 59% 13.4 mph SW21.6 kmh SW 21.5 mph34.6 kmh 29.76 in1007.8 mb 0.00 in0.0 mm 0.00 in0.0 mm 0.00 in0.0 mm
11:54 AM 51.5°F10.8°C 37.5°F3.1°C 59% 18.3 mph SW29.5 kmh SW 21.5 mph34.6 kmh 29.76 in1007.8 mb 0.00 in0.0 mm 0.00 in0.0 mm 0.00 in0.0 mm
11:49 AM 51.1°F10.6°C 37.7°F3.2°C 60% 14.4 mph S23.2 kmh S 20.1 mph32.3 kmh 29.76 in1007.8 mb 0.00 in0.0 mm 0.00 in0.0 mm 0.00 in0.0 mm
11:44 AM 50.9°F10.5°C 38.0°F3.3°C 61% 13.1 mph SW21.1 kmh SW 19.2 mph30.9 kmh 29.76 in1007.8 mb 0.00 in0.0 mm 0.00 in0.0 mm 0.00 in0.0 mm
11:39 AM 50.4°F10.2°C 37.4°F3.0°C 61% 16.3 mph S26.2 kmh S 19.2 mph30.9 kmh 29.76 in1007.8 mb 0.00 in0.0 mm 0.00 in0.0 mm 0.00 in0.0 mm
11:34 AM 50.0°F10.0°C 37.9°F3.3°C 63% 16.3 mph SW26.2 kmh SW 18.1 mph29.1 kmh 29.76 in1007.8 mb 0.00 in0.0 mm 0.00 in0.0 mm 0.00 in0.0 mm
11:29 AM 49.9°F9.9°C 37.7°F3.2°C 63% 14.2 mph SW22.9 kmh SW 19.5 mph31.4 kmh 29.76 in1007.8 mb 0.00 in0.0 mm 0.00 in0.0 mm 0.00 in0.0 mm
11:24 AM 49.7°F9.8°C 38.0°F3.3°C 64% 17.0 mph SW27.4 kmh SW 19.5 mph31.4 kmh 29.76 in1007.8 mb 0.00 in0.0 mm 0.00 in0.0 mm 0.00 in0.0 mm
11:19 AM 49.0°F9.4°C 37.3°F2.9°C 64% 17.0 mph SSW27.4 kmh SSW 17.9 mph28.8 kmh 29.76 in1007.8 mb 0.00 in0.0 mm 0.00 in0.0 mm 0.00 in0.0 mm
11:14 AM 48.6°F9.2°C 37.4°F3.0°C 65% 15.2 mph SW24.5 kmh SW 17.9 mph28.8 kmh 29.76 in1007.8 mb 0.00 in0.0 mm 0.00 in0.0 mm 0.00 in0.0 mm
11:09 AM 48.2°F9.0°C 37.4°F3.0°C 66% 15.2 mph S24.5 kmh S 22.4 mph36.0 kmh 29.76 in1007.8 mb 0.00 in0.0 mm 0.00 in0.0 mm 0.00 in0.0 mm
11:04 AM 48.1°F8.9°C 36.8°F2.7°C 65% 17.5 mph S28.2 kmh S 22.4 mph36.0 kmh 29.76 in1007.8 mb 0.00 in0.0 mm 0.00 in0.0 mm 0.00 in0.0 mm
11:00 AM 47.9°F8.8°C 37.5°F3.1°C 67% 15.7 mph SW25.3 kmh SW 18.1 mph29.1 kmh 29.76 in1007.8 mb 0.00 in0.0 mm 0.00 in0.0 mm 0.00 in0.0 mm
10:54 AM 47.5°F8.6°C 37.4°F3.0°C 68% 9.1 mph SW14.6 kmh SW 17.4 mph28.0 kmh 29.76 in1007.8 mb 0.00 in0.0 mm 0.00 in0.0 mm 0.00 in0.0 mm
10:49 AM 47.3°F8.5°C 37.3°F2.9°C 68% 14.9 mph SW24.0 kmh SW 22.1 mph35.6 kmh 29.76 in1007.8 mb 0.00 in0.0 mm 0.00 in0.0 mm 0.00 in0.0 mm
10:44 AM 47.0°F8.3°C 37.4°F3.0°C 69% 19.2 mph SSW30.9 kmh SSW 22.1 mph35.6 kmh 29.76 in1007.8 mb 0.00 in0.0 mm 0.00 in0.0 mm 0.00 in0.0 mm
10:39 AM 46.8°F8.2°C 37.6°F3.1°C 70% 14.8 mph SSW23.8 kmh SSW 17.0 mph27.4 kmh 29.76 in1007.8 mb 0.00 in0.0 mm 0.00 in0.0 mm 0.00 in0.0 mm
10:34 AM 46.4°F8.0°C 37.3°F2.9°C 70% 14.7 mph S23.7 kmh S 17.9 mph28.8 kmh 29.76 in1007.8 mb 0.00 in0.0 mm 0.00 in0.0 mm 0.00 in0.0 mm
10:29 AM 46.1°F7.8°C 37.9°F3.3°C 73% 14.0 mph SW22.5 kmh SW 17.9 mph28.8 kmh 29.76 in1007.8 mb 0.00 in0.0 mm 0.00 in0.0 mm 0.00 in0.0 mm
10:24 AM 45.9°F7.7°C 37.5°F3.1°C 72% 13.4 mph S21.6 kmh S 15.7 mph25.3 kmh 29.76 in1007.8 mb 0.00 in0.0 mm 0.00 in0.0 mm 0.00 in0.0 mm
10:19 AM 45.5°F7.5°C 38.1°F3.4°C 75% 12.1 mph SSW19.5 kmh SSW 15.4 mph24.8 kmh 29.75 in1007.5 mb 0.00 in0.0 mm 0.00 in0.0 mm 0.00 in0.0 mm
10:14 AM 44.8°F7.1°C 37.0°F2.8°C 74% 12.3 mph S19.8 kmh S 16.6 mph26.7 kmh 29.75 in1007.5 mb 0.00 in0.0 mm 0.00 in0.0 mm 0.00 in0.0 mm
10:09 AM 44.5°F6.9°C 37.4°F3.0°C 76% 11.9 mph SW19.2 kmh SW 17.4 mph28.0 kmh 29.75 in1007.5 mb 0.00 in0.0 mm 0.00 in0.0 mm 0.00 in0.0 mm
10:04 AM 43.9°F6.6°C 36.5°F2.5°C 75% 17.3 mph SSW27.8 kmh SSW 17.4 mph28.0 kmh 29.76 in1007.8 mb 0.00 in0.0 mm 0.00 in0.0 mm 0.00 in0.0 mm
09:59 AM 43.6°F6.4°C 36.8°F2.7°C 77% 13.9 mph SW22.4 kmh SW 15.9 mph25.6 kmh 29.76 in1007.8 mb 0.00 in0.0 mm 0.00 in0.0 mm 0.00 in0.0 mm
09:54 AM 43.0°F6.1°C 36.3°F2.4°C 77% 11.0 mph SW17.7 kmh SW 18.1 mph29.1 kmh 29.76 in1007.8 mb 0.00 in0.0 mm 0.00 in0.0 mm 0.00 in0.0 mm
09:49 AM 43.0°F6.1°C 36.0°F2.2°C 76% 11.4 mph S18.3 kmh S 20.1 mph32.3 kmh 29.76 in1007.8 mb 0.00 in0.0 mm 0.00 in0.0 mm 0.00 in0.0 mm
09:44 AM 42.8°F6.0°C 36.1°F2.3°C 77% 12.1 mph SSW19.5 kmh SSW 20.4 mph32.8 kmh 29.75 in1007.5 mb 0.00 in0.0 mm 0.00 in0.0 mm 0.00 in0.0 mm
09:39 AM 42.7°F5.9°C 36.9°F2.7°C 80% 16.8 mph SSW27.0 kmh SSW 22.1 mph35.6 kmh 29.75 in1007.5 mb 0.00 in0.0 mm 0.00 in0.0 mm 0.00 in0.0 mm
09:34 AM 41.8°F5.4°C 36.0°F2.2°C 80% 16.3 mph S26.2 kmh S 22.1 mph35.6 kmh 29.76 in1007.8 mb 0.00 in0.0 mm 0.00 in0.0 mm 0.00 in0.0 mm
09:29 AM 41.4°F5.2°C 35.9°F2.2°C 81% 14.6 mph SSW23.5 kmh SSW 19.2 mph30.9 kmh 29.76 in1007.8 mb 0.00 in0.0 mm 0.00 in0.0 mm 0.00 in0.0 mm
09:24 AM 41.0°F5.0°C 35.6°F2.0°C 81% 14.8 mph S23.8 kmh S 17.9 mph28.8 kmh 29.76 in1007.8 mb 0.00 in0.0 mm 0.00 in0.0 mm 0.00 in0.0 mm
09:19 AM 40.7°F4.8°C 35.6°F2.0°C 82% 13.6 mph SSW21.9 kmh SSW 20.8 mph33.5 kmh 29.76 in1007.8 mb 0.00 in0.0 mm 0.00 in0.0 mm 0.00 in0.0 mm
09:14 AM 40.5°F4.7°C 35.4°F1.9°C 82% 16.2 mph S26.1 kmh S 20.8 mph33.5 kmh 29.76 in1007.8 mb 0.00 in0.0 mm 0.00 in0.0 mm 0.00 in0.0 mm
09:09 AM 40.0°F4.4°C 35.2°F1.8°C 83% 16.1 mph S25.9 kmh S 18.8 mph30.3 kmh 29.76 in1007.8 mb 0.00 in0.0 mm 0.00 in0.0 mm 0.00 in0.0 mm
09:04 AM 39.6°F4.2°C 35.2°F1.8°C 84% 14.5 mph S23.3 kmh S 20.8 mph33.5 kmh 29.76 in1007.8 mb 0.00 in0.0 mm 0.00 in0.0 mm 0.00 in0.0 mm
08:58 AM 39.2°F4.0°C 34.8°F1.6°C 84% 15.4 mph S24.8 kmh S 20.8 mph33.5 kmh 29.75 in1007.5 mb 0.00 in0.0 mm 0.00 in0.0 mm 0.00 in0.0 mm
08:53 AM 38.7°F3.7°C 34.6°F1.4°C 85% 12.9 mph SSW20.8 kmh SSW 16.1 mph25.9 kmh 29.75 in1007.5 mb 0.00 in0.0 mm 0.00 in0.0 mm 0.00 in0.0 mm
08:48 AM 38.5°F3.6°C 34.7°F1.5°C 86% 10.3 mph S16.6 kmh S 16.1 mph25.9 kmh 29.74 in1007.1 mb 0.00 in0.0 mm 0.00 in0.0 mm 0.00 in0.0 mm
08:43 AM 38.0°F3.3°C 34.4°F1.3°C 87% 15.3 mph S24.6 kmh S 17.0 mph27.4 kmh 29.74 in1007.1 mb 0.00 in0.0 mm 0.00 in0.0 mm 0.00 in0.0 mm
08:38 AM 37.4°F3.0°C 34.5°F1.4°C 89% 14.1 mph S22.7 kmh S 17.0 mph27.4 kmh 29.74 in1007.1 mb 0.00 in0.0 mm 0.00 in0.0 mm 0.00 in0.0 mm
08:33 AM 37.1°F2.8°C 33.9°F1.1°C 88% 8.4 mph S13.5 kmh S 12.1 mph19.5 kmh 29.74 in1007.1 mb 0.00 in0.0 mm 0.00 in0.0 mm 0.00 in0.0 mm
08:28 AM 36.4°F2.4°C 33.1°F0.6°C 88% 7.7 mph SSW12.4 kmh SSW 12.1 mph19.5 kmh 29.75 in1007.5 mb 0.00 in0.0 mm 0.00 in0.0 mm 0.00 in0.0 mm
08:23 AM 36.0°F2.2°C 32.8°F0.4°C 88% 5.3 mph S8.5 kmh S 7.8 mph12.6 kmh 29.75 in1007.5 mb 0.00 in0.0 mm 0.00 in0.0 mm 0.00 in0.0 mm
08:18 AM 35.6°F2.0°C 32.4°F0.2°C 88% 7.4 mph S11.9 kmh S 7.8 mph12.6 kmh 29.75 in1007.5 mb 0.00 in0.0 mm 0.00 in0.0 mm 0.00 in0.0 mm
08:13 AM 35.3°F1.8°C 32.1°F0.1°C 88% 5.7 mph S9.2 kmh S 6.0 mph9.7 kmh 29.75 in1007.5 mb 0.00 in0.0 mm 0.00 in0.0 mm 0.00 in0.0 mm
08:09 AM 35.1°F1.7°C 31.9°F-0.1°C 88% 4.5 mph SE7.2 kmh SE 4.9 mph7.9 kmh 29.75 in1007.5 mb 0.00 in0.0 mm 0.00 in0.0 mm 0.00 in0.0 mm
08:04 AM 34.9°F1.6°C 31.7°F-0.2°C 88% 3.1 mph SE5.0 kmh SE 3.1 mph5.0 kmh 29.76 in1007.8 mb 0.00 in0.0 mm 0.00 in0.0 mm 0.00 in0.0 mm
07:58 AM 34.9°F1.6°C 31.7°F-0.2°C 88% 0.7 mph WSW1.1 kmh WSW 1.8 mph2.9 kmh 29.76 in1007.8 mb 0.00 in0.0 mm 0.00 in0.0 mm 0.00 in0.0 mm
07:53 AM 34.9°F1.6°C 31.7°F-0.2°C 88% Calm Calm 1.8 mph2.9 kmh 29.76 in1007.8 mb 0.00 in0.0 mm 0.00 in0.0 mm 0.00 in0.0 mm
07:48 AM 34.7°F1.5°C 31.5°F-0.3°C 88% 1.5 mph 2.4 kmh 4.0 mph6.4 kmh 29.76 in1007.8 mb 0.00 in0.0 mm 0.00 in0.0 mm 0.00 in0.0 mm
07:43 AM 34.9°F1.6°C 31.7°F-0.2°C 88% 1.0 mph ESE1.6 kmh ESE 4.3 mph6.9 kmh 29.76 in1007.8 mb 0.00 in0.0 mm 0.00 in0.0 mm 0.00 in0.0 mm
07:38 AM 34.7°F1.5°C 31.5°F-0.3°C 88% 3.1 mph ENE5.0 kmh ENE 5.8 mph9.3 kmh 29.75 in1007.5 mb 0.00 in0.0 mm 0.00 in0.0 mm 0.00 in0.0 mm
07:33 AM 34.7°F1.5°C 31.5°F-0.3°C 88% 4.5 mph ENE7.2 kmh ENE 5.8 mph9.3 kmh 29.75 in1007.5 mb 0.00 in0.0 mm 0.00 in0.0 mm 0.00 in0.0 mm
07:28 AM 34.6°F1.4°C 31.3°F-0.4°C 88% 1.5 mph N2.4 kmh N 2.5 mph4.0 kmh 29.75 in1007.5 mb 0.00 in0.0 mm 0.00 in0.0 mm 0.00 in0.0 mm
07:23 AM 34.4°F1.3°C 31.2°F-0.4°C 88% 1.5 mph ESE2.4 kmh ESE 4.7 mph7.6 kmh 29.74 in1007.1 mb 0.00 in0.0 mm 0.00 in0.0 mm 0.00 in0.0 mm
07:18 AM 34.0°F1.1°C 30.8°F-0.7°C 88% 2.2 mph SSW3.5 kmh SSW 4.7 mph7.6 kmh 29.74 in1007.1 mb 0.00 in0.0 mm 0.00 in0.0 mm 0.00 in0.0 mm
07:13 AM 33.8°F1.0°C 30.6°F-0.8°C 88% 3.3 mph S5.3 kmh S 4.5 mph7.2 kmh 29.73 in1006.8 mb 0.00 in0.0 mm 0.00 in0.0 mm 0.00 in0.0 mm
07:08 AM 33.7°F0.9°C 30.2°F-1.0°C 87% 1.6 mph NNE2.6 kmh NNE 3.6 mph5.8 kmh 29.73 in1006.8 mb 0.00 in0.0 mm 0.00 in0.0 mm 0.00 in0.0 mm
07:03 AM 33.7°F0.9°C 30.2°F-1.0°C 87% 2.7 mph W4.3 kmh W 4.0 mph6.4 kmh 29.73 in1006.8 mb 0.00 in0.0 mm 0.00 in0.0 mm 0.00 in0.0 mm
06:58 AM 33.7°F0.9°C 30.2°F-1.0°C 87% 2.8 mph W4.5 kmh W 4.7 mph7.6 kmh 29.73 in1006.8 mb 0.00 in0.0 mm 0.00 in0.0 mm 0.00 in0.0 mm
06:53 AM 33.7°F0.9°C 30.2°F-1.0°C 87% 4.3 mph WSW6.9 kmh WSW 4.7 mph7.6 kmh 29.73 in1006.8 mb 0.00 in0.0 mm 0.00 in0.0 mm 0.00 in0.0 mm
06:48 AM 33.7°F0.9°C 30.2°F-1.0°C 87% 1.5 mph SW2.4 kmh SW 4.0 mph6.4 kmh 29.72 in1006.4 mb 0.00 in0.0 mm 0.00 in0.0 mm 0.00 in0.0 mm
06:43 AM 33.8°F1.0°C 30.2°F-1.0°C 87% 2.6 mph SSW4.2 kmh SSW 4.0 mph6.4 kmh 29.72 in1006.4 mb 0.00 in0.0 mm 0.00 in0.0 mm 0.00 in0.0 mm
06:38 AM 33.8°F1.0°C 30.2°F-1.0°C 87% 1.8 mph NNE2.9 kmh NNE 2.2 mph3.5 kmh 29.72 in1006.4 mb 0.00 in0.0 mm 0.00 in0.0 mm 0.00 in0.0 mm
06:33 AM 33.8°F1.0°C 30.2°F-1.0°C 87% 1.3 mph NNE2.1 kmh NNE 2.2 mph3.5 kmh 29.72 in1006.4 mb 0.00 in0.0 mm 0.00 in0.0 mm 0.00 in0.0 mm
06:28 AM 33.8°F1.0°C 30.0°F-1.1°C 86% 2.0 mph NNE3.2 kmh NNE 2.5 mph4.0 kmh 29.71 in1006.1 mb 0.00 in0.0 mm 0.00 in0.0 mm 0.00 in0.0 mm
06:23 AM 33.7°F0.9°C 30.2°F-1.0°C 87% 0.7 mph NE1.1 kmh NE 2.5 mph4.0 kmh 29.71 in1006.1 mb 0.00 in0.0 mm 0.00 in0.0 mm 0.00 in0.0 mm
06:18 AM 33.7°F0.9°C 29.8°F-1.2°C 86% 1.5 mph NE2.4 kmh NE 2.5 mph4.0 kmh 29.71 in1006.1 mb 0.00 in0.0 mm 0.00 in0.0 mm 0.00 in0.0 mm
06:13 AM 33.5°F0.8°C 30.0°F-1.1°C 87% 0.9 mph E1.4 kmh E 1.8 mph2.9 kmh 29.71 in1006.1 mb 0.00 in0.0 mm 0.00 in0.0 mm 0.00 in0.0 mm
06:08 AM 33.5°F0.8°C 29.7°F-1.3°C 86% 1.0 mph WNW1.6 kmh WNW 4.0 mph6.4 kmh 29.71 in1006.1 mb 0.00 in0.0 mm 0.00 in0.0 mm 0.00 in0.0 mm
06:03 AM 33.3°F0.7°C 29.5°F-1.4°C 86% 2.2 mph NE3.5 kmh NE 6.0 mph9.7 kmh 29.71 in1006.1 mb 0.00 in0.0 mm 0.00 in0.0 mm 0.00 in0.0 mm
05:57 AM 33.1°F0.6°C 29.3°F-1.5°C 86% 5.3 mph N8.5 kmh N 6.0 mph9.7 kmh 29.71 in1006.1 mb 0.00 in0.0 mm 0.00 in0.0 mm 0.00 in0.0 mm
05:52 AM 33.3°F0.7°C 29.5°F-1.4°C 86% 1.5 mph N2.4 kmh N 5.4 mph8.7 kmh 29.70 in1005.8 mb 0.00 in0.0 mm 0.00 in0.0 mm 0.00 in0.0 mm
05:47 AM 33.3°F0.7°C 29.8°F-1.2°C 87% 2.8 mph NE4.5 kmh NE 5.4 mph8.7 kmh 29.70 in1005.8 mb 0.00 in0.0 mm 0.00 in0.0 mm 0.00 in0.0 mm
05:42 AM 33.3°F0.7°C 29.8°F-1.2°C 87% 3.8 mph SW6.1 kmh SW 4.9 mph7.9 kmh 29.70 in1005.8 mb 0.00 in0.0 mm 0.00 in0.0 mm 0.00 in0.0 mm
05:37 AM 33.3°F0.7°C 29.8°F-1.2°C 87% 4.3 mph SW6.9 kmh SW 4.5 mph7.2 kmh 29.69 in1005.4 mb 0.00 in0.0 mm 0.00 in0.0 mm 0.00 in0.0 mm
05:33 AM 33.3°F0.7°C 29.8°F-1.2°C 87% 4.1 mph SSW6.6 kmh SSW 4.5 mph7.2 kmh 29.69 in1005.4 mb 0.00 in0.0 mm 0.00 in0.0 mm 0.00 in0.0 mm
05:28 AM 33.5°F0.8°C 29.7°F-1.3°C 86% 3.4 mph S5.5 kmh S 4.7 mph7.6 kmh 29.69 in1005.4 mb 0.00 in0.0 mm 0.00 in0.0 mm 0.00 in0.0 mm
05:23 AM 33.5°F0.8°C 29.7°F-1.3°C 86% 3.7 mph SSW6.0 kmh SSW 5.6 mph9.0 kmh 29.69 in1005.4 mb 0.00 in0.0 mm 0.00 in0.0 mm 0.00 in0.0 mm
05:18 AM 33.5°F0.8°C 29.7°F-1.3°C 86% 5.3 mph SW8.5 kmh SW 5.6 mph9.0 kmh 29.69 in1005.4 mb 0.00 in0.0 mm 0.00 in0.0 mm 0.00 in0.0 mm
05:13 AM 33.5°F0.8°C 29.7°F-1.3°C 86% 4.6 mph SSW7.4 kmh SSW 4.9 mph7.9 kmh 29.69 in1005.4 mb 0.00 in0.0 mm 0.00 in0.0 mm 0.00 in0.0 mm
05:08 AM 33.5°F0.8°C 29.7°F-1.3°C 86% 3.9 mph SW6.3 kmh SW 4.0 mph6.4 kmh 29.69 in1005.4 mb 0.00 in0.0 mm 0.00 in0.0 mm 0.00 in0.0 mm
05:03 AM 33.7°F0.9°C 29.8°F-1.2°C 86% 3.7 mph SW6.0 kmh SW 5.1 mph8.2 kmh 29.69 in1005.4 mb 0.00 in0.0 mm 0.00 in0.0 mm 0.00 in0.0 mm
04:57 AM 33.8°F1.0°C 30.0°F-1.1°C 86% 4.1 mph SW6.6 kmh SW 5.1 mph8.2 kmh 29.68 in1005.1 mb 0.00 in0.0 mm 0.00 in0.0 mm 0.00 in0.0 mm
04:52 AM 34.0°F1.1°C 30.2°F-1.0°C 86% 1.9 mph SW3.1 kmh SW 3.8 mph6.1 kmh 29.68 in1005.1 mb 0.00 in0.0 mm 0.00 in0.0 mm 0.00 in0.0 mm
04:47 AM 34.2°F1.2°C 30.3°F-0.9°C 86% 2.3 mph SW3.7 kmh SW 5.1 mph8.2 kmh 29.68 in1005.1 mb 0.00 in0.0 mm 0.00 in0.0 mm 0.00 in0.0 mm
04:42 AM 34.2°F1.2°C 30.3°F-0.9°C 86% 4.3 mph WSW6.9 kmh WSW 6.5 mph10.5 kmh 29.68 in1005.1 mb 0.00 in0.0 mm 0.00 in0.0 mm 0.00 in0.0 mm
04:37 AM 34.2°F1.2°C 30.3°F-0.9°C 86% 5.6 mph WSW9.0 kmh WSW 6.5 mph10.5 kmh 29.68 in1005.1 mb 0.00 in0.0 mm 0.00 in0.0 mm 0.00 in0.0 mm
04:32 AM 34.2°F1.2°C 30.3°F-0.9°C 86% 5.7 mph W9.2 kmh W 6.3 mph10.1 kmh 29.68 in1005.1 mb 0.00 in0.0 mm 0.00 in0.0 mm 0.00 in0.0 mm
04:27 AM 34.6°F1.4°C 30.7°F-0.7°C 86% 4.6 mph W7.4 kmh W 5.4 mph8.7 kmh 29.68 in1005.1 mb 0.00 in0.0 mm 0.00 in0.0 mm 0.00 in0.0 mm
04:22 AM 34.7°F1.5°C 30.9°F-0.6°C 86% 4.5 mph W7.2 kmh W 4.7 mph7.6 kmh 29.68 in1005.1 mb 0.00 in0.0 mm 0.00 in0.0 mm 0.00 in0.0 mm
04:17 AM 34.9°F1.6°C 31.1°F-0.5°C 86% 4.6 mph WSW7.4 kmh WSW 5.4 mph8.7 kmh 29.67 in1004.7 mb 0.00 in0.0 mm 0.00 in0.0 mm 0.00 in0.0 mm
04:12 AM 35.1°F1.7°C 31.2°F-0.4°C 86% 5.3 mph SW8.5 kmh SW 6.0 mph9.7 kmh 29.67 in1004.7 mb 0.00 in0.0 mm 0.00 in0.0 mm 0.00 in0.0 mm
04:07 AM 35.3°F1.8°C 31.4°F-0.3°C 86% 4.9 mph SW7.9 kmh SW 6.7 mph10.8 kmh 29.67 in1004.7 mb 0.00 in0.0 mm 0.00 in0.0 mm 0.00 in0.0 mm
04:02 AM 35.5°F1.9°C 31.6°F-0.2°C 86% 5.5 mph WSW8.9 kmh WSW 6.9 mph11.1 kmh 29.67 in1004.7 mb 0.00 in0.0 mm 0.00 in0.0 mm 0.00 in0.0 mm
03:57 AM 35.5°F1.9°C 31.6°F-0.2°C 86% 6.5 mph WSW10.5 kmh WSW 6.9 mph11.1 kmh 29.67 in1004.7 mb 0.00 in0.0 mm 0.00 in0.0 mm 0.00 in0.0 mm
03:52 AM 35.5°F1.9°C 31.6°F-0.2°C 86% 6.6 mph SW10.6 kmh SW 6.7 mph10.8 kmh 29.67 in1004.7 mb 0.00 in0.0 mm 0.00 in0.0 mm 0.00 in0.0 mm
03:47 AM 35.5°F1.9°C 31.6°F-0.2°C 86% 5.1 mph SW8.2 kmh SW 7.4 mph11.9 kmh 29.67 in1004.7 mb 0.00 in0.0 mm 0.00 in0.0 mm 0.00 in0.0 mm
03:42 AM 35.6°F2.0°C 31.8°F-0.1°C 86% 6.3 mph SW10.1 kmh SW 7.6 mph12.2 kmh 29.67 in1004.7 mb 0.00 in0.0 mm 0.00 in0.0 mm 0.00 in0.0 mm
03:37 AM 35.6°F2.0°C 31.8°F-0.1°C 86% 6.8 mph SW10.9 kmh SW 8.5 mph13.7 kmh 29.67 in1004.7 mb 0.00 in0.0 mm 0.00 in0.0 mm 0.00 in0.0 mm
03:32 AM 35.6°F2.0°C 31.8°F-0.1°C 86% 8.1 mph SW13.0 kmh SW 8.5 mph13.7 kmh 29.67 in1004.7 mb 0.00 in0.0 mm 0.00 in0.0 mm 0.00 in0.0 mm
03:27 AM 35.8°F2.1°C 32.2°F0.1°C 87% 5.8 mph SW9.3 kmh SW 9.2 mph14.8 kmh 29.67 in1004.7 mb 0.00 in0.0 mm 0.00 in0.0 mm 0.00 in0.0 mm
03:22 AM 35.6°F2.0°C 31.8°F-0.1°C 86% 7.9 mph SSW12.7 kmh SSW 9.2 mph14.8 kmh 29.67 in1004.7 mb 0.00 in0.0 mm 0.00 in0.0 mm 0.00 in0.0 mm
03:17 AM 35.6°F2.0°C 31.8°F-0.1°C 86% 7.8 mph SW12.6 kmh SW 9.2 mph14.8 kmh 29.67 in1004.7 mb 0.00 in0.0 mm 0.00 in0.0 mm 0.00 in0.0 mm
03:12 AM 35.8°F2.1°C 32.2°F0.1°C 87% 6.4 mph SW10.3 kmh SW 9.2 mph14.8 kmh 29.67 in1004.7 mb 0.00 in0.0 mm 0.00 in0.0 mm 0.00 in0.0 mm
03:07 AM 35.8°F2.1°C 32.2°F0.1°C 87% 5.9 mph WSW9.5 kmh WSW 11.4 mph18.3 kmh 29.67 in1004.7 mb 0.00 in0.0 mm 0.00 in0.0 mm 0.00 in0.0 mm
03:02 AM 35.8°F2.1°C 32.2°F0.1°C 87% 7.8 mph SW12.6 kmh SW 11.4 mph18.3 kmh 29.67 in1004.7 mb 0.00 in0.0 mm 0.00 in0.0 mm 0.00 in0.0 mm
02:57 AM 35.8°F2.1°C 32.2°F0.1°C 87% 4.7 mph WSW7.6 kmh WSW 10.3 mph16.6 kmh 29.67 in1004.7 mb 0.00 in0.0 mm 0.00 in0.0 mm 0.00 in0.0 mm
02:52 AM 35.8°F2.1°C 32.2°F0.1°C 87% 7.9 mph SW12.7 kmh SW 11.4 mph18.3 kmh 29.67 in1004.7 mb 0.00 in0.0 mm 0.00 in0.0 mm 0.00 in0.0 mm
02:47 AM 35.8°F2.1°C 32.2°F0.1°C 87% 8.9 mph SW14.3 kmh SW 11.4 mph18.3 kmh 29.66 in1004.4 mb 0.00 in0.0 mm 0.00 in0.0 mm 0.00 in0.0 mm
02:42 AM 35.8°F2.1°C 32.2°F0.1°C 87% 5.4 mph WSW8.7 kmh WSW 6.3 mph10.1 kmh 29.66 in1004.4 mb 0.00 in0.0 mm 0.00 in0.0 mm 0.00 in0.0 mm
02:37 AM 36.0°F2.2°C 32.1°F0.1°C 86% 6.0 mph SW9.7 kmh SW 6.0 mph9.7 kmh 29.66 in1004.4 mb 0.00 in0.0 mm 0.00 in0.0 mm 0.00 in0.0 mm
02:32 AM 36.0°F2.2°C 32.1°F0.1°C 86% 3.1 mph WSW5.0 kmh WSW 4.7 mph7.6 kmh 29.66 in1004.4 mb 0.00 in0.0 mm 0.00 in0.0 mm 0.00 in0.0 mm
02:27 AM 36.0°F2.2°C 32.1°F0.1°C 86% 4.6 mph SW7.4 kmh SW 6.0 mph9.7 kmh 29.66 in1004.4 mb 0.00 in0.0 mm 0.00 in0.0 mm 0.00 in0.0 mm
02:22 AM 36.2°F2.3°C 32.3°F0.2°C 86% 4.0 mph WSW6.4 kmh WSW 7.6 mph12.2 kmh 29.66 in1004.4 mb 0.00 in0.0 mm 0.00 in0.0 mm 0.00 in0.0 mm
02:17 AM 36.4°F2.4°C 32.5°F0.3°C 86% 5.5 mph SW8.9 kmh SW 9.4 mph15.1 kmh 29.66 in1004.4 mb 0.00 in0.0 mm 0.00 in0.0 mm 0.00 in0.0 mm
02:12 AM 36.2°F2.3°C 32.3°F0.2°C 86% 5.5 mph SW8.9 kmh SW 9.8 mph15.8 kmh 29.66 in1004.4 mb 0.00 in0.0 mm 0.00 in0.0 mm 0.00 in0.0 mm
02:07 AM 36.2°F2.3°C 32.3°F0.2°C 86% 6.1 mph SW9.8 kmh SW 9.8 mph15.8 kmh 29.66 in1004.4 mb 0.00 in0.0 mm 0.00 in0.0 mm 0.00 in0.0 mm
02:02 AM 36.0°F2.2°C 32.1°F0.1°C 86% 7.5 mph WSW12.1 kmh WSW 7.8 mph12.6 kmh 29.66 in1004.4 mb 0.00 in0.0 mm 0.00 in0.0 mm 0.00 in0.0 mm
01:57 AM 36.0°F2.2°C 32.4°F0.2°C 87% 2.8 mph WNW4.5 kmh WNW 2.9 mph4.7 kmh 29.66 in1004.4 mb 0.00 in0.0 mm 0.00 in0.0 mm 0.00 in0.0 mm
01:52 AM 36.2°F2.3°C 32.3°F0.2°C 86% 0.4 mph SW0.6 kmh SW 2.5 mph4.0 kmh 29.66 in1004.4 mb 0.00 in0.0 mm 0.00 in0.0 mm 0.00 in0.0 mm
01:47 AM 36.4°F2.4°C 32.5°F0.3°C 86% 2.3 mph WSW3.7 kmh WSW 2.5 mph4.0 kmh 29.66 in1004.4 mb 0.00 in0.0 mm 0.00 in0.0 mm 0.00 in0.0 mm
01:42 AM 36.4°F2.4°C 32.5°F0.3°C 86% 2.5 mph WSW4.0 kmh WSW 7.6 mph12.2 kmh 29.66 in1004.4 mb 0.00 in0.0 mm 0.00 in0.0 mm 0.00 in0.0 mm
01:37 AM 36.4°F2.4°C 32.5°F0.3°C 86% 4.1 mph WSW6.6 kmh WSW 7.6 mph12.2 kmh 29.66 in1004.4 mb 0.00 in0.0 mm 0.00 in0.0 mm 0.00 in0.0 mm
01:32 AM 36.4°F2.4°C 32.5°F0.3°C 86% 5.3 mph SW8.5 kmh SW 7.6 mph12.2 kmh 29.66 in1004.4 mb 0.00 in0.0 mm 0.00 in0.0 mm 0.00 in0.0 mm
01:27 AM 36.2°F2.3°C 32.3°F0.2°C 86% 6.1 mph SW9.8 kmh SW 7.6 mph12.2 kmh 29.66 in1004.4 mb 0.00 in0.0 mm 0.00 in0.0 mm 0.00 in0.0 mm
01:22 AM 36.0°F2.2°C 32.4°F0.2°C 87% 3.0 mph WSW4.8 kmh WSW 3.6 mph5.8 kmh 29.65 in1004.1 mb 0.00 in0.0 mm 0.00 in0.0 mm 0.00 in0.0 mm
01:16 AM 36.2°F2.3°C 32.3°F0.2°C 86% 1.8 mph SE2.9 kmh SE 3.6 mph5.8 kmh 29.65 in1004.1 mb 0.00 in0.0 mm 0.00 in0.0 mm 0.00 in0.0 mm
01:11 AM 36.0°F2.2°C 32.1°F0.1°C 86% 2.2 mph NNW3.5 kmh NNW 2.5 mph4.0 kmh 29.65 in1004.1 mb 0.00 in0.0 mm 0.00 in0.0 mm 0.00 in0.0 mm
01:06 AM 36.2°F2.3°C 32.3°F0.2°C 86% 0.9 mph 1.4 kmh 4.0 mph6.4 kmh 29.65 in1004.1 mb 0.00 in0.0 mm 0.00 in0.0 mm 0.00 in0.0 mm
01:01 AM 36.2°F2.3°C 32.3°F0.2°C 86% 2.5 mph NNW4.0 kmh NNW 4.0 mph6.4 kmh 29.65 in1004.1 mb 0.00 in0.0 mm 0.00 in0.0 mm 0.00 in0.0 mm
12:56 AM 36.2°F2.3°C 32.3°F0.2°C 86% 2.0 mph N3.2 kmh N 5.4 mph8.7 kmh 29.65 in1004.1 mb 0.00 in0.0 mm 0.00 in0.0 mm 0.00 in0.0 mm
12:51 AM 36.2°F2.3°C 32.3°F0.2°C 86% 3.4 mph NW5.5 kmh NW 6.3 mph10.1 kmh 29.65 in1004.1 mb 0.00 in0.0 mm 0.00 in0.0 mm 0.00 in0.0 mm
12:47 AM 36.2°F2.3°C 32.3°F0.2°C 86% 5.9 mph N9.5 kmh N 6.3 mph10.1 kmh 29.65 in1004.1 mb 0.00 in0.0 mm 0.00 in0.0 mm 0.00 in0.0 mm
12:42 AM 36.2°F2.3°C 32.3°F0.2°C 86% 3.5 mph NNW5.6 kmh NNW 3.6 mph5.8 kmh 29.65 in1004.1 mb 0.00 in0.0 mm 0.00 in0.0 mm 0.00 in0.0 mm
12:37 AM 36.2°F2.3°C 32.3°F0.2°C 86% 2.5 mph NW4.0 kmh NW 2.5 mph4.0 kmh 29.65 in1004.1 mb 0.00 in0.0 mm 0.00 in0.0 mm 0.00 in0.0 mm
12:32 AM 36.2°F2.3°C 32.3°F0.2°C 86% 0.7 mph NE1.1 kmh NE 4.7 mph7.6 kmh 29.65 in1004.1 mb 0.00 in0.0 mm 0.00 in0.0 mm 0.00 in0.0 mm
12:27 AM 36.2°F2.3°C 32.3°F0.2°C 86% 3.8 mph SW6.1 kmh SW 4.7 mph7.6 kmh 29.65 in1004.1 mb 0.00 in0.0 mm 0.00 in0.0 mm 0.00 in0.0 mm
12:22 AM 36.0°F2.2°C 32.1°F0.1°C 86% Calm Calm 2.5 mph4.0 kmh 29.65 in1004.1 mb 0.00 in0.0 mm 0.00 in0.0 mm 0.00 in0.0 mm
12:17 AM 36.2°F2.3°C 32.3°F0.2°C 86% 1.9 mph 3.1 kmh 3.4 mph5.5 kmh 29.66 in1004.4 mb 0.00 in0.0 mm 0.00 in0.0 mm 0.00 in0.0 mm
12:12 AM 36.4°F2.4°C 32.5°F0.3°C 86% 2.2 mph NNW3.5 kmh NNW 3.4 mph5.5 kmh 29.65 in1004.1 mb 0.00 in0.0 mm 0.00 in0.0 mm 0.00 in0.0 mm
12:07 AM 36.4°F2.4°C 32.5°F0.3°C 86% 2.2 mph NW3.5 kmh NW 2.5 mph4.0 kmh 29.66 in1004.4 mb 0.00 in0.0 mm 0.00 in0.0 mm 0.00 in0.0 mm
12:02 AM 36.4°F2.4°C 32.5°F0.3°C 86% 1.7 mph NNW2.7 kmh NNW 2.7 mph4.3 kmh 29.65 in1004.1 mb 0.00 in0.0 mm 0.00 in0.0 mm 0.00 in0.0 mm